sensor_id;sensor_type;location;lat;lon;timestamp;temperature;humidity
14471;DHT22;7321;50.802;4.336;2023-06-22T00:00:00;22.60;99.90
14471;DHT22;7321;50.802;4.336;2023-06-22T00:02:32;22.70;99.90
14471;DHT22;7321;50.802;4.336;2023-06-22T00:05:00;22.80;99.90
14471;DHT22;7321;50.802;4.336;2023-06-22T00:07:30;22.80;99.90
14471;DHT22;7321;50.802;4.336;2023-06-22T00:10:01;22.70;99.90
14471;DHT22;7321;50.802;4.336;2023-06-22T00:12:30;22.50;99.90
14471;DHT22;7321;50.802;4.336;2023-06-22T00:15:07;22.60;99.90
14471;DHT22;7321;50.802;4.336;2023-06-22T00:17:41;22.60;99.90
14471;DHT22;7321;50.802;4.336;2023-06-22T00:20:19;22.60;99.90
14471;DHT22;7321;50.802;4.336;2023-06-22T00:22:46;22.80;99.90
14471;DHT22;7321;50.802;4.336;2023-06-22T00:25:15;22.80;99.90
14471;DHT22;7321;50.802;4.336;2023-06-22T00:27:46;22.70;99.90
14471;DHT22;7321;50.802;4.336;2023-06-22T00:30:12;22.60;99.90
14471;DHT22;7321;50.802;4.336;2023-06-22T00:32:38;22.60;99.90
14471;DHT22;7321;50.802;4.336;2023-06-22T00:35:05;22.50;99.90
14471;DHT22;7321;50.802;4.336;2023-06-22T00:37:30;22.40;99.90
14471;DHT22;7321;50.802;4.336;2023-06-22T00:40:08;22.40;99.90
14471;DHT22;7321;50.802;4.336;2023-06-22T00:42:47;22.40;99.90
14471;DHT22;7321;50.802;4.336;2023-06-22T00:45:15;22.50;99.90
14471;DHT22;7321;50.802;4.336;2023-06-22T00:47:51;22.50;99.90
14471;DHT22;7321;50.802;4.336;2023-06-22T00:50:28;22.60;99.90
14471;DHT22;7321;50.802;4.336;2023-06-22T00:53:00;22.70;99.90
14471;DHT22;7321;50.802;4.336;2023-06-22T00:55:35;22.90;99.90
14471;DHT22;7321;50.802;4.336;2023-06-22T00:58:03;22.80;99.90
14471;DHT22;7321;50.802;4.336;2023-06-22T01:00:39;22.70;99.90
14471;DHT22;7321;50.802;4.336;2023-06-22T01:03:14;22.70;99.90
14471;DHT22;7321;50.802;4.336;2023-06-22T01:05:45;22.60;99.90
14471;DHT22;7321;50.802;4.336;2023-06-22T01:14:03;22.80;99.90
14471;DHT22;7321;50.802;4.336;2023-06-22T01:16:31;22.80;99.90
14471;DHT22;7321;50.802;4.336;2023-06-22T01:19:01;22.80;99.90
14471;DHT22;7321;50.802;4.336;2023-06-22T01:21:31;22.80;99.90
14471;DHT22;7321;50.802;4.336;2023-06-22T01:26:40;22.70;99.90
14471;DHT22;7321;50.802;4.336;2023-06-22T01:29:09;22.60;99.90
14471;DHT22;7321;50.802;4.336;2023-06-22T01:31:39;22.70;99.90
14471;DHT22;7321;50.802;4.336;2023-06-22T01:34:07;22.70;99.90
14471;DHT22;7321;50.802;4.336;2023-06-22T01:36:34;22.60;99.90
14471;DHT22;7321;50.802;4.336;2023-06-22T01:39:02;22.60;99.90
14471;DHT22;7321;50.802;4.336;2023-06-22T01:41:34;22.50;99.90
14471;DHT22;7321;50.802;4.336;2023-06-22T01:44:08;22.60;99.90
14471;DHT22;7321;50.802;4.336;2023-06-22T01:46:38;22.50;99.90
14471;DHT22;7321;50.802;4.336;2023-06-22T01:49:06;22.30;99.90
14471;DHT22;7321;50.802;4.336;2023-06-22T01:51:32;22.20;99.90
14471;DHT22;7321;50.802;4.336;2023-06-22T01:54:01;22.10;99.90
14471;DHT22;7321;50.802;4.336;2023-06-22T01:56:31;22.20;99.90
14471;DHT22;7321;50.802;4.336;2023-06-22T01:59:14;22.20;99.90
14471;DHT22;7321;50.802;4.336;2023-06-22T02:01:57;22.20;99.90
14471;DHT22;7321;50.802;4.336;2023-06-22T02:04:29;22.30;99.90
14471;DHT22;7321;50.802;4.336;2023-06-22T02:07:00;22.40;99.90
14471;DHT22;7321;50.802;4.336;2023-06-22T02:09:37;22.30;99.90
14471;DHT22;7321;50.802;4.336;2023-06-22T02:12:13;22.40;99.90
14471;DHT22;7321;50.802;4.336;2023-06-22T02:14:43;22.40;99.90
14471;DHT22;7321;50.802;4.336;2023-06-22T02:17:10;22.30;99.90
14471;DHT22;7321;50.802;4.336;2023-06-22T02:19:44;22.30;99.90
14471;DHT22;7321;50.802;4.336;2023-06-22T02:22:11;22.20;99.90
14471;DHT22;7321;50.802;4.336;2023-06-22T02:24:41;22.10;99.90
14471;DHT22;7321;50.802;4.336;2023-06-22T02:27:07;22.00;99.90
14471;DHT22;7321;50.802;4.336;2023-06-22T02:29:33;22.00;99.90
14471;DHT22;7321;50.802;4.336;2023-06-22T02:32:03;21.90;99.90
14471;DHT22;7321;50.802;4.336;2023-06-22T02:34:29;22.00;99.90
14471;DHT22;7321;50.802;4.336;2023-06-22T02:36:55;22.10;99.90
14471;DHT22;7321;50.802;4.336;2023-06-22T02:39:24;22.00;99.90
14471;DHT22;7321;50.802;4.336;2023-06-22T02:41:54;22.00;99.90
14471;DHT22;7321;50.802;4.336;2023-06-22T02:44:23;22.00;99.90
14471;DHT22;7321;50.802;4.336;2023-06-22T02:46:54;22.00;99.90
14471;DHT22;7321;50.802;4.336;2023-06-22T02:49:21;22.00;99.90
14471;DHT22;7321;50.802;4.336;2023-06-22T02:51:53;21.90;99.90
14471;DHT22;7321;50.802;4.336;2023-06-22T02:54:22;21.80;99.90
14471;DHT22;7321;50.802;4.336;2023-06-22T02:56:48;21.80;99.90
14471;DHT22;7321;50.802;4.336;2023-06-22T02:59:16;21.70;99.90
14471;DHT22;7321;50.802;4.336;2023-06-22T03:01:59;21.70;99.90
14471;DHT22;7321;50.802;4.336;2023-06-22T03:04:33;21.60;99.90
14471;DHT22;7321;50.802;4.336;2023-06-22T03:07:01;21.50;99.90
14471;DHT22;7321;50.802;4.336;2023-06-22T03:09:33;21.40;99.90
14471;DHT22;7321;50.802;4.336;2023-06-22T03:11:58;21.50;99.90
14471;DHT22;7321;50.802;4.336;2023-06-22T03:14:35;21.50;99.90
14471;DHT22;7321;50.802;4.336;2023-06-22T03:17:04;21.60;99.90
14471;DHT22;7321;50.802;4.336;2023-06-22T03:19:30;21.50;99.90
14471;DHT22;7321;50.802;4.336;2023-06-22T03:22:03;21.50;99.90
14471;DHT22;7321;50.802;4.336;2023-06-22T03:24:31;21.60;99.90
14471;DHT22;7321;50.802;4.336;2023-06-22T03:27:03;21.70;99.90
14471;DHT22;7321;50.802;4.336;2023-06-22T03:29:48;21.80;99.90
14471;DHT22;7321;50.802;4.336;2023-06-22T03:32:17;21.70;99.90
14471;DHT22;7321;50.802;4.336;2023-06-22T03:34:46;21.70;99.90
14471;DHT22;7321;50.802;4.336;2023-06-22T03:37:17;21.60;99.90
14471;DHT22;7321;50.802;4.336;2023-06-22T03:39:46;21.50;99.90
14471;DHT22;7321;50.802;4.336;2023-06-22T03:42:12;21.50;99.90
14471;DHT22;7321;50.802;4.336;2023-06-22T03:44:41;21.50;99.90
14471;DHT22;7321;50.802;4.336;2023-06-22T03:47:15;21.50;99.90
14471;DHT22;7321;50.802;4.336;2023-06-22T03:49:44;21.60;99.90
14471;DHT22;7321;50.802;4.336;2023-06-22T03:52:19;21.70;99.90
14471;DHT22;7321;50.802;4.336;2023-06-22T03:54:55;21.70;99.90
14471;DHT22;7321;50.802;4.336;2023-06-22T03:57:43;21.80;99.90
14471;DHT22;7321;50.802;4.336;2023-06-22T04:00:32;22.00;99.90
14471;DHT22;7321;50.802;4.336;2023-06-22T04:03:01;22.20;99.90
14471;DHT22;7321;50.802;4.336;2023-06-22T04:05:33;22.20;99.90
14471;DHT22;7321;50.802;4.336;2023-06-22T04:08:13;22.20;99.90
14471;DHT22;7321;50.802;4.336;2023-06-22T04:10:44;22.30;99.90
14471;DHT22;7321;50.802;4.336;2023-06-22T04:13:39;22.40;99.90
14471;DHT22;7321;50.802;4.336;2023-06-22T04:16:13;22.50;99.90
14471;DHT22;7321;50.802;4.336;2023-06-22T04:18:59;22.50;99.90
14471;DHT22;7321;50.802;4.336;2023-06-22T04:21:34;22.60;99.90
14471;DHT22;7321;50.802;4.336;2023-06-22T04:24:03;22.60;99.90
14471;DHT22;7321;50.802;4.336;2023-06-22T04:26:37;22.60;99.90
14471;DHT22;7321;50.802;4.336;2023-06-22T04:29:07;22.60;99.90
14471;DHT22;7321;50.802;4.336;2023-06-22T04:31:47;22.80;99.90
14471;DHT22;7321;50.802;4.336;2023-06-22T04:34:24;22.60;99.90
14471;DHT22;7321;50.802;4.336;2023-06-22T04:37:16;22.50;99.90
14471;DHT22;7321;50.802;4.336;2023-06-22T04:39:51;22.40;99.90
14471;DHT22;7321;50.802;4.336;2023-06-22T04:42:41;22.30;99.90
14471;DHT22;7321;50.802;4.336;2023-06-22T04:45:23;22.30;99.90
14471;DHT22;7321;50.802;4.336;2023-06-22T04:47:55;22.30;99.90
14471;DHT22;7321;50.802;4.336;2023-06-22T04:50:21;22.50;99.90
14471;DHT22;7321;50.802;4.336;2023-06-22T04:52:51;22.40;99.90
14471;DHT22;7321;50.802;4.336;2023-06-22T04:55:19;22.50;99.90
14471;DHT22;7321;50.802;4.336;2023-06-22T04:57:46;22.50;99.90
14471;DHT22;7321;50.802;4.336;2023-06-22T05:00:16;22.40;99.90
14471;DHT22;7321;50.802;4.336;2023-06-22T05:02:44;22.30;99.90
14471;DHT22;7321;50.802;4.336;2023-06-22T05:05:11;22.30;99.90
14471;DHT22;7321;50.802;4.336;2023-06-22T05:07:41;22.40;99.90
14471;DHT22;7321;50.802;4.336;2023-06-22T05:10:12;22.50;99.90
14471;DHT22;7321;50.802;4.336;2023-06-22T05:12:38;22.50;99.90
14471;DHT22;7321;50.802;4.336;2023-06-22T05:15:06;22.50;99.90
14471;DHT22;7321;50.802;4.336;2023-06-22T05:17:36;22.50;99.90
14471;DHT22;7321;50.802;4.336;2023-06-22T05:20:02;22.60;99.90
14471;DHT22;7321;50.802;4.336;2023-06-22T05:22:32;22.40;99.90
14471;DHT22;7321;50.802;4.336;2023-06-22T05:24:59;22.30;99.90
14471;DHT22;7321;50.802;4.336;2023-06-22T05:27:24;22.00;99.90
14471;DHT22;7321;50.802;4.336;2023-06-22T05:29:50;22.00;99.90
14471;DHT22;7321;50.802;4.336;2023-06-22T05:32:16;21.90;99.90
14471;DHT22;7321;50.802;4.336;2023-06-22T05:34:42;21.70;99.90
14471;DHT22;7321;50.802;4.336;2023-06-22T05:37:08;21.60;99.90
14471;DHT22;7321;50.802;4.336;2023-06-22T05:39:38;21.40;99.90
14471;DHT22;7321;50.802;4.336;2023-06-22T05:42:07;21.20;99.90
14471;DHT22;7321;50.802;4.336;2023-06-22T05:44:36;21.20;99.90
14471;DHT22;7321;50.802;4.336;2023-06-22T05:47:04;21.00;99.90
14471;DHT22;7321;50.802;4.336;2023-06-22T05:49:45;20.90;99.90
14471;DHT22;7321;50.802;4.336;2023-06-22T05:52:20;20.70;99.90
14471;DHT22;7321;50.802;4.336;2023-06-22T05:54:49;20.60;99.90
14471;DHT22;7321;50.802;4.336;2023-06-22T05:57:25;20.50;99.90
14471;DHT22;7321;50.802;4.336;2023-06-22T05:59:54;20.50;99.90
14471;DHT22;7321;50.802;4.336;2023-06-22T06:02:22;20.40;99.90
14471;DHT22;7321;50.802;4.336;2023-06-22T06:05:14;20.50;99.90
14471;DHT22;7321;50.802;4.336;2023-06-22T06:08:08;20.70;99.90
14471;DHT22;7321;50.802;4.336;2023-06-22T06:10:43;20.70;99.90
14471;DHT22;7321;50.802;4.336;2023-06-22T06:13:12;20.70;99.90
14471;DHT22;7321;50.802;4.336;2023-06-22T06:15:38;20.80;99.90
14471;DHT22;7321;50.802;4.336;2023-06-22T06:18:04;20.90;99.90
14471;DHT22;7321;50.802;4.336;2023-06-22T06:20:34;20.80;99.90
14471;DHT22;7321;50.802;4.336;2023-06-22T06:23:00;20.80;99.90
14471;DHT22;7321;50.802;4.336;2023-06-22T06:25:26;20.70;99.90
14471;DHT22;7321;50.802;4.336;2023-06-22T06:27:52;20.80;99.90
14471;DHT22;7321;50.802;4.336;2023-06-22T06:30:20;20.80;99.90
14471;DHT22;7321;50.802;4.336;2023-06-22T06:32:54;20.80;99.90
14471;DHT22;7321;50.802;4.336;2023-06-22T06:35:21;20.80;99.90
14471;DHT22;7321;50.802;4.336;2023-06-22T06:37:49;21.00;99.90
14471;DHT22;7321;50.802;4.336;2023-06-22T06:40:17;21.20;99.90
14471;DHT22;7321;50.802;4.336;2023-06-22T06:42:47;21.20;99.90
14471;DHT22;7321;50.802;4.336;2023-06-22T06:45:19;21.20;99.90
14471;DHT22;7321;50.802;4.336;2023-06-22T06:47:45;21.10;99.90
14471;DHT22;7321;50.802;4.336;2023-06-22T06:50:12;21.10;99.90
14471;DHT22;7321;50.802;4.336;2023-06-22T06:52:46;21.20;99.90
14471;DHT22;7321;50.802;4.336;2023-06-22T06:55:12;21.10;99.90
14471;DHT22;7321;50.802;4.336;2023-06-22T06:57:42;21.10;99.90
14471;DHT22;7321;50.802;4.336;2023-06-22T07:00:10;21.20;99.90
14471;DHT22;7321;50.802;4.336;2023-06-22T07:02:40;21.20;99.90
14471;DHT22;7321;50.802;4.336;2023-06-22T07:05:14;21.40;99.90
14471;DHT22;7321;50.802;4.336;2023-06-22T07:07:52;21.40;99.90
14471;DHT22;7321;50.802;4.336;2023-06-22T07:10:19;21.50;99.90
14471;DHT22;7321;50.802;4.336;2023-06-22T07:12:47;21.50;99.90
14471;DHT22;7321;50.802;4.336;2023-06-22T07:15:16;21.50;99.90
14471;DHT22;7321;50.802;4.336;2023-06-22T07:17:49;21.50;99.90
14471;DHT22;7321;50.802;4.336;2023-06-22T07:20:21;21.40;99.90
14471;DHT22;7321;50.802;4.336;2023-06-22T07:23:11;21.40;99.90
14471;DHT22;7321;50.802;4.336;2023-06-22T07:25:39;21.40;99.90
14471;DHT22;7321;50.802;4.336;2023-06-22T07:28:06;21.50;99.90
14471;DHT22;7321;50.802;4.336;2023-06-22T07:30:33;21.60;99.90
14471;DHT22;7321;50.802;4.336;2023-06-22T07:32:59;21.50;99.90
14471;DHT22;7321;50.802;4.336;2023-06-22T07:35:30;21.50;99.90
14471;DHT22;7321;50.802;4.336;2023-06-22T07:37:56;21.40;99.90
14471;DHT22;7321;50.802;4.336;2023-06-22T07:40:24;21.40;99.90
14471;DHT22;7321;50.802;4.336;2023-06-22T07:42:50;21.40;99.90
14471;DHT22;7321;50.802;4.336;2023-06-22T07:45:23;21.60;99.90
14471;DHT22;7321;50.802;4.336;2023-06-22T07:47:49;21.80;99.90
14471;DHT22;7321;50.802;4.336;2023-06-22T07:50:18;21.70;99.90
14471;DHT22;7321;50.802;4.336;2023-06-22T07:52:53;21.70;99.90
14471;DHT22;7321;50.802;4.336;2023-06-22T07:55:21;21.70;99.90
14471;DHT22;7321;50.802;4.336;2023-06-22T07:57:50;21.70;99.90
14471;DHT22;7321;50.802;4.336;2023-06-22T08:00:20;21.80;99.90
14471;DHT22;7321;50.802;4.336;2023-06-22T08:02:46;21.70;99.90
14471;DHT22;7321;50.802;4.336;2023-06-22T08:05:17;21.70;99.90
14471;DHT22;7321;50.802;4.336;2023-06-22T08:07:48;21.60;99.90
14471;DHT22;7321;50.802;4.336;2023-06-22T08:10:20;21.60;99.90
14471;DHT22;7321;50.802;4.336;2023-06-22T08:12:55;21.70;99.90
14471;DHT22;7321;50.802;4.336;2023-06-22T08:18:16;21.90;99.90
14471;DHT22;7321;50.802;4.336;2023-06-22T08:20:42;21.80;99.90
14471;DHT22;7321;50.802;4.336;2023-06-22T08:23:08;21.80;99.90
14471;DHT22;7321;50.802;4.336;2023-06-22T08:25:34;21.90;99.90
14471;DHT22;7321;50.802;4.336;2023-06-22T08:28:01;21.90;99.90
14471;DHT22;7321;50.802;4.336;2023-06-22T08:30:28;22.10;99.90
14471;DHT22;7321;50.802;4.336;2023-06-22T08:32:56;22.10;99.90
14471;DHT22;7321;50.802;4.336;2023-06-22T08:35:23;22.00;99.90
14471;DHT22;7321;50.802;4.336;2023-06-22T08:37:49;22.00;99.90
14471;DHT22;7321;50.802;4.336;2023-06-22T08:40:22;22.10;99.90
14471;DHT22;7321;50.802;4.336;2023-06-22T08:42:48;22.00;99.90
14471;DHT22;7321;50.802;4.336;2023-06-22T08:45:15;21.90;99.90
14471;DHT22;7321;50.802;4.336;2023-06-22T08:47:41;21.90;99.90
14471;DHT22;7321;50.802;4.336;2023-06-22T08:50:12;21.80;99.90
14471;DHT22;7321;50.802;4.336;2023-06-22T08:52:39;21.70;99.90
14471;DHT22;7321;50.802;4.336;2023-06-22T08:55:07;21.70;99.90
14471;DHT22;7321;50.802;4.336;2023-06-22T08:57:34;21.70;99.90
14471;DHT22;7321;50.802;4.336;2023-06-22T09:00:03;21.70;99.90
14471;DHT22;7321;50.802;4.336;2023-06-22T09:02:30;21.70;99.90
14471;DHT22;7321;50.802;4.336;2023-06-22T09:05:03;21.70;99.90
14471;DHT22;7321;50.802;4.336;2023-06-22T09:07:29;21.80;99.90
14471;DHT22;7321;50.802;4.336;2023-06-22T09:10:04;21.80;99.90
14471;DHT22;7321;50.802;4.336;2023-06-22T09:12:33;21.80;99.90
14471;DHT22;7321;50.802;4.336;2023-06-22T09:15:02;21.80;99.90
14471;DHT22;7321;50.802;4.336;2023-06-22T09:17:32;21.80;99.90
14471;DHT22;7321;50.802;4.336;2023-06-22T09:20:04;21.80;99.90
14471;DHT22;7321;50.802;4.336;2023-06-22T09:22:43;21.80;99.90
14471;DHT22;7321;50.802;4.336;2023-06-22T09:25:18;21.80;99.90
14471;DHT22;7321;50.802;4.336;2023-06-22T09:27:47;21.90;99.90
14471;DHT22;7321;50.802;4.336;2023-06-22T09:30:19;21.80;99.90
14471;DHT22;7321;50.802;4.336;2023-06-22T09:32:48;22.00;99.90
14471;DHT22;7321;50.802;4.336;2023-06-22T09:35:14;22.10;99.90
14471;DHT22;7321;50.802;4.336;2023-06-22T09:37:40;22.20;99.90
14471;DHT22;7321;50.802;4.336;2023-06-22T09:40:07;22.10;99.90
14471;DHT22;7321;50.802;4.336;2023-06-22T09:42:35;22.10;99.90
14471;DHT22;7321;50.802;4.336;2023-06-22T09:45:02;22.00;99.90
14471;DHT22;7321;50.802;4.336;2023-06-22T09:47:28;22.10;99.90
14471;DHT22;7321;50.802;4.336;2023-06-22T09:49:54;22.10;99.90
14471;DHT22;7321;50.802;4.336;2023-06-22T09:52:21;22.10;99.90
14471;DHT22;7321;50.802;4.336;2023-06-22T09:54:47;21.80;99.90
14471;DHT22;7321;50.802;4.336;2023-06-22T09:57:13;21.50;99.90
14471;DHT22;7321;50.802;4.336;2023-06-22T09:59:39;21.40;99.90
14471;DHT22;7321;50.802;4.336;2023-06-22T10:02:08;21.10;99.90
14471;DHT22;7321;50.802;4.336;2023-06-22T10:04:35;20.80;99.90
14471;DHT22;7321;50.802;4.336;2023-06-22T10:07:02;20.70;99.90
14471;DHT22;7321;50.802;4.336;2023-06-22T10:09:28;20.50;99.90
14471;DHT22;7321;50.802;4.336;2023-06-22T10:11:54;20.00;99.90
14471;DHT22;7321;50.802;4.336;2023-06-22T10:14:20;19.80;99.90
14471;DHT22;7321;50.802;4.336;2023-06-22T10:16:46;19.40;99.90
14471;DHT22;7321;50.802;4.336;2023-06-22T10:19:11;19.20;99.90
14471;DHT22;7321;50.802;4.336;2023-06-22T10:21:37;19.00;99.90
14471;DHT22;7321;50.802;4.336;2023-06-22T10:24:03;19.00;99.90
14471;DHT22;7321;50.802;4.336;2023-06-22T10:26:35;19.00;99.90
14471;DHT22;7321;50.802;4.336;2023-06-22T10:29:02;19.00;99.90
14471;DHT22;7321;50.802;4.336;2023-06-22T10:31:36;19.00;99.90
14471;DHT22;7321;50.802;4.336;2023-06-22T10:34:01;18.90;99.90
14471;DHT22;7321;50.802;4.336;2023-06-22T10:36:27;18.90;99.90
14471;DHT22;7321;50.802;4.336;2023-06-22T10:39:06;18.80;99.90
14471;DHT22;7321;50.802;4.336;2023-06-22T10:41:37;18.60;99.90
14471;DHT22;7321;50.802;4.336;2023-06-22T10:44:03;18.50;99.90
14471;DHT22;7321;50.802;4.336;2023-06-22T10:46:29;18.50;99.90
14471;DHT22;7321;50.802;4.336;2023-06-22T10:48:54;18.40;99.90
14471;DHT22;7321;50.802;4.336;2023-06-22T10:51:22;18.30;99.90
14471;DHT22;7321;50.802;4.336;2023-06-22T10:53:48;18.40;99.90
14471;DHT22;7321;50.802;4.336;2023-06-22T10:56:14;18.30;99.90
14471;DHT22;7321;50.802;4.336;2023-06-22T10:58:40;18.40;99.90
14471;DHT22;7321;50.802;4.336;2023-06-22T11:01:06;18.50;99.90
14471;DHT22;7321;50.802;4.336;2023-06-22T11:03:32;18.60;99.90
14471;DHT22;7321;50.802;4.336;2023-06-22T11:05:57;18.70;99.90
14471;DHT22;7321;50.802;4.336;2023-06-22T11:08:23;18.80;99.90
14471;DHT22;7321;50.802;4.336;2023-06-22T11:10:51;18.80;99.90
14471;DHT22;7321;50.802;4.336;2023-06-22T11:13:17;18.90;99.90
14471;DHT22;7321;50.802;4.336;2023-06-22T11:15:43;18.90;99.90
14471;DHT22;7321;50.802;4.336;2023-06-22T11:18:09;19.00;99.90
14471;DHT22;7321;50.802;4.336;2023-06-22T11:20:35;19.10;99.90
14471;DHT22;7321;50.802;4.336;2023-06-22T11:23:05;19.00;99.90
14471;DHT22;7321;50.802;4.336;2023-06-22T11:25:34;19.10;99.90
14471;DHT22;7321;50.802;4.336;2023-06-22T11:28:04;19.10;99.90
14471;DHT22;7321;50.802;4.336;2023-06-22T11:30:30;19.20;99.90
14471;DHT22;7321;50.802;4.336;2023-06-22T11:32:58;19.30;99.90
14471;DHT22;7321;50.802;4.336;2023-06-22T11:35:24;19.50;99.90
14471;DHT22;7321;50.802;4.336;2023-06-22T11:37:50;19.50;99.90
14471;DHT22;7321;50.802;4.336;2023-06-22T11:40:16;19.50;99.90
14471;DHT22;7321;50.802;4.336;2023-06-22T11:42:43;19.40;99.90
14471;DHT22;7321;50.802;4.336;2023-06-22T11:45:12;19.50;99.90
14471;DHT22;7321;50.802;4.336;2023-06-22T11:47:38;19.50;99.90
14471;DHT22;7321;50.802;4.336;2023-06-22T11:50:05;19.20;99.90
14471;DHT22;7321;50.802;4.336;2023-06-22T11:52:33;19.20;99.90
14471;DHT22;7321;50.802;4.336;2023-06-22T11:54:59;19.10;99.90
14471;DHT22;7321;50.802;4.336;2023-06-22T11:57:25;19.10;99.90
14471;DHT22;7321;50.802;4.336;2023-06-22T11:59:50;19.20;99.90
14471;DHT22;7321;50.802;4.336;2023-06-22T12:02:19;19.20;99.90
14471;DHT22;7321;50.802;4.336;2023-06-22T12:04:45;19.20;99.90
14471;DHT22;7321;50.802;4.336;2023-06-22T12:07:14;19.20;99.90
14471;DHT22;7321;50.802;4.336;2023-06-22T12:09:46;19.20;99.90
14471;DHT22;7321;50.802;4.336;2023-06-22T12:12:12;19.20;99.90
14471;DHT22;7321;50.802;4.336;2023-06-22T12:14:38;19.10;99.90
14471;DHT22;7321;50.802;4.336;2023-06-22T12:17:04;19.10;99.90
14471;DHT22;7321;50.802;4.336;2023-06-22T12:19:30;19.00;99.90
14471;DHT22;7321;50.802;4.336;2023-06-22T12:21:55;18.90;99.90
14471;DHT22;7321;50.802;4.336;2023-06-22T12:24:21;18.90;99.90
14471;DHT22;7321;50.802;4.336;2023-06-22T12:26:47;19.00;99.90
14471;DHT22;7321;50.802;4.336;2023-06-22T12:29:13;18.80;99.90
14471;DHT22;7321;50.802;4.336;2023-06-22T12:31:39;18.70;99.90
14471;DHT22;7321;50.802;4.336;2023-06-22T12:34:05;18.70;99.90
14471;DHT22;7321;50.802;4.336;2023-06-22T12:36:31;18.70;99.90
14471;DHT22;7321;50.802;4.336;2023-06-22T12:38:56;18.70;99.90
14471;DHT22;7321;50.802;4.336;2023-06-22T12:41:22;18.50;99.90
14471;DHT22;7321;50.802;4.336;2023-06-22T12:43:48;18.50;99.90
14471;DHT22;7321;50.802;4.336;2023-06-22T12:46:14;18.50;99.90
14471;DHT22;7321;50.802;4.336;2023-06-22T12:48:39;18.50;99.90
14471;DHT22;7321;50.802;4.336;2023-06-22T12:51:09;18.60;99.90
14471;DHT22;7321;50.802;4.336;2023-06-22T12:53:35;18.60;99.90
14471;DHT22;7321;50.802;4.336;2023-06-22T12:56:01;18.60;99.90
14471;DHT22;7321;50.802;4.336;2023-06-22T12:58:27;18.60;99.90
14471;DHT22;7321;50.802;4.336;2023-06-22T13:00:53;18.50;99.90
14471;DHT22;7321;50.802;4.336;2023-06-22T13:03:19;18.60;99.90
14471;DHT22;7321;50.802;4.336;2023-06-22T13:05:44;18.70;99.90
14471;DHT22;7321;50.802;4.336;2023-06-22T13:08:10;18.70;99.90
14471;DHT22;7321;50.802;4.336;2023-06-22T13:11:18;18.70;99.90
14471;DHT22;7321;50.802;4.336;2023-06-22T13:13:45;18.80;99.90
14471;DHT22;7321;50.802;4.336;2023-06-22T13:16:20;18.80;99.90
14471;DHT22;7321;50.802;4.336;2023-06-22T13:18:46;18.70;99.90
14471;DHT22;7321;50.802;4.336;2023-06-22T13:21:11;18.80;99.90
14471;DHT22;7321;50.802;4.336;2023-06-22T13:26:07;18.80;99.90
14471;DHT22;7321;50.802;4.336;2023-06-22T13:28:33;18.80;99.90
14471;DHT22;7321;50.802;4.336;2023-06-22T13:30:59;18.80;99.90
14471;DHT22;7321;50.802;4.336;2023-06-22T13:33:25;18.70;99.90
14471;DHT22;7321;50.802;4.336;2023-06-22T13:35:50;18.60;99.90
14471;DHT22;7321;50.802;4.336;2023-06-22T13:38:16;18.60;99.90
14471;DHT22;7321;50.802;4.336;2023-06-22T13:40:43;18.50;99.90
14471;DHT22;7321;50.802;4.336;2023-06-22T13:43:09;18.50;99.90
14471;DHT22;7321;50.802;4.336;2023-06-22T13:45:35;18.50;99.90
14471;DHT22;7321;50.802;4.336;2023-06-22T13:48:00;18.40;99.90
14471;DHT22;7321;50.802;4.336;2023-06-22T13:50:26;18.40;99.90
14471;DHT22;7321;50.802;4.336;2023-06-22T13:52:52;18.30;99.90
14471;DHT22;7321;50.802;4.336;2023-06-22T13:55:18;18.40;99.90
14471;DHT22;7321;50.802;4.336;2023-06-22T13:57:46;18.30;99.90
14471;DHT22;7321;50.802;4.336;2023-06-22T14:00:13;18.30;99.90
14471;DHT22;7321;50.802;4.336;2023-06-22T14:02:39;18.30;99.90
14471;DHT22;7321;50.802;4.336;2023-06-22T14:05:08;18.40;99.90
14471;DHT22;7321;50.802;4.336;2023-06-22T14:07:35;18.30;99.90
14471;DHT22;7321;50.802;4.336;2023-06-22T14:10:01;18.30;99.90
14471;DHT22;7321;50.802;4.336;2023-06-22T14:12:27;18.30;99.90
14471;DHT22;7321;50.802;4.336;2023-06-22T14:14:53;18.40;99.90
14471;DHT22;7321;50.802;4.336;2023-06-22T14:17:19;18.40;99.90
14471;DHT22;7321;50.802;4.336;2023-06-22T14:19:49;18.40;99.90
14471;DHT22;7321;50.802;4.336;2023-06-22T14:22:21;18.30;99.90
14471;DHT22;7321;50.802;4.336;2023-06-22T14:24:50;18.20;99.90
14471;DHT22;7321;50.802;4.336;2023-06-22T14:27:16;18.20;99.90
14471;DHT22;7321;50.802;4.336;2023-06-22T14:29:42;18.30;99.90
14471;DHT22;7321;50.802;4.336;2023-06-22T14:32:09;18.30;99.90
14471;DHT22;7321;50.802;4.336;2023-06-22T14:34:35;18.30;99.90
14471;DHT22;7321;50.802;4.336;2023-06-22T14:37:06;18.40;99.90
14471;DHT22;7321;50.802;4.336;2023-06-22T14:39:32;18.50;99.90
14471;DHT22;7321;50.802;4.336;2023-06-22T14:41:58;18.40;99.90
14471;DHT22;7321;50.802;4.336;2023-06-22T14:44:24;18.40;99.90
14471;DHT22;7321;50.802;4.336;2023-06-22T14:46:49;18.40;99.90
14471;DHT22;7321;50.802;4.336;2023-06-22T14:49:15;18.40;99.90
14471;DHT22;7321;50.802;4.336;2023-06-22T14:51:41;18.40;99.90
14471;DHT22;7321;50.802;4.336;2023-06-22T14:54:07;18.40;99.90
14471;DHT22;7321;50.802;4.336;2023-06-22T14:56:33;18.40;99.90
14471;DHT22;7321;50.802;4.336;2023-06-22T14:58:58;18.40;99.90
14471;DHT22;7321;50.802;4.336;2023-06-22T15:01:24;18.40;99.90
14471;DHT22;7321;50.802;4.336;2023-06-22T15:03:50;18.40;99.90
14471;DHT22;7321;50.802;4.336;2023-06-22T15:06:16;18.50;99.90
14471;DHT22;7321;50.802;4.336;2023-06-22T15:08:42;18.60;99.90
14471;DHT22;7321;50.802;4.336;2023-06-22T15:11:08;18.60;99.90
14471;DHT22;7321;50.802;4.336;2023-06-22T15:13:34;18.70;99.90
14471;DHT22;7321;50.802;4.336;2023-06-22T15:16:03;18.80;99.90
14471;DHT22;7321;50.802;4.336;2023-06-22T15:18:29;18.80;99.90
14471;DHT22;7321;50.802;4.336;2023-06-22T15:20:55;18.80;99.90
14471;DHT22;7321;50.802;4.336;2023-06-22T15:23:21;18.80;99.90
14471;DHT22;7321;50.802;4.336;2023-06-22T15:25:47;18.80;99.90
14471;DHT22;7321;50.802;4.336;2023-06-22T15:28:14;18.80;99.90
14471;DHT22;7321;50.802;4.336;2023-06-22T15:30:40;18.80;99.90
14471;DHT22;7321;50.802;4.336;2023-06-22T15:33:06;18.80;99.90
14471;DHT22;7321;50.802;4.336;2023-06-22T15:35:32;18.90;99.90
14471;DHT22;7321;50.802;4.336;2023-06-22T15:37:58;18.90;99.90
14471;DHT22;7321;50.802;4.336;2023-06-22T15:40:25;18.90;99.90
14471;DHT22;7321;50.802;4.336;2023-06-22T15:42:50;18.90;99.90
14471;DHT22;7321;50.802;4.336;2023-06-22T15:45:16;18.90;99.90
14471;DHT22;7321;50.802;4.336;2023-06-22T15:47:42;19.00;99.90
14471;DHT22;7321;50.802;4.336;2023-06-22T15:50:08;19.00;99.90
14471;DHT22;7321;50.802;4.336;2023-06-22T15:52:34;19.10;99.90
14471;DHT22;7321;50.802;4.336;2023-06-22T15:55:00;19.10;99.90
14471;DHT22;7321;50.802;4.336;2023-06-22T15:57:27;19.10;99.90
14471;DHT22;7321;50.802;4.336;2023-06-22T15:59:53;19.30;99.90
14471;DHT22;7321;50.802;4.336;2023-06-22T16:02:19;19.20;99.90
14471;DHT22;7321;50.802;4.336;2023-06-22T16:04:45;19.10;99.90
14471;DHT22;7321;50.802;4.336;2023-06-22T16:07:12;19.20;99.90
14471;DHT22;7321;50.802;4.336;2023-06-22T16:09:39;19.30;99.90